<?xml version="1.0" encoding="UTF-8" standalone="no" ?>
<gpx xmlns="http://www.topografix.com/GPX/1/1" xmlns:xsi="http://www.w3.org/2001/XMLSchema-instance" xsi:schemaLocation="http://www.topografix.com/GPX/1/1 http://www.topografix.com/GPX/1/1/gpx.xsd" version="1.1" creator="VisuGPX - https://www.visugpx.com">
  <metadata>
    <name>Mérindol - Crau Saint Phalez</name>
    <desc><![CDATA[Petite balade familiale de 3 km / 30 min entre forêt et prairie sur les hauteurs de Mérindol en Luberon.]]></desc>
  </metadata>
  <wpt lat="43.77443" lon="5.18933">
    <ele>266.3</ele>
    <name><![CDATA[21/08/2014 3:12 PM (départ)]]></name>
  </wpt>
  <wpt lat="43.77454" lon="5.19041">
    <ele>239.4</ele>
    <name><![CDATA[21/08/2014 3:12 PM (fin)]]></name>
    <desc><![CDATA[Créé par Google Mes parcours sur Android  Nom : 21/08/2014 3:12 PM Type d'activité : - Description : - Distance totale : 2,60 km (1,6 mi) Durée totale : 45:56 Durée du déplacement : 21:22 Vitesse moyenne : 3,39 km/h (2,1 mi/h) Vitesse moyenne de déplacement : 7,29 km/h (4,5 mi/h) Vitesse max. : 37,13 km/h (23,1 mi/h) Vitesse moyenne : 17:41 min/km (28:27 min/mi) Allure moyenne : 8:14 min/km (13:14 min/mi) Vitesse maximale : 1:37 min/km (2:36 min/mi) Élévation max. : 310 m (1016 pi) Élévation min. : 105 m (345 pi) Dénivelé : 1815 m (5954 pi) Inclinaison max. : 99 % Inclinaison min. : -21 % Date d'enregistrement : 21/08/2014 3:12 PM]]></desc>
  </wpt>
  <trk>
    <name><![CDATA[21/08/2014 3:12 PM]]></name>
    <trkseg>
      <trkpt lat="43.77443" lon="5.18933">
        <ele>266.299987793</ele>
        <time>2014-08-21T13:12:11.511Z</time>
      </trkpt>
      <trkpt lat="43.77448" lon="5.18927">
        <ele>267.600006104</ele>
        <time>2014-08-21T13:12:26.877Z</time>
      </trkpt>
      <trkpt lat="43.77451" lon="5.18925">
        <ele>266.100006104</ele>
        <time>2014-08-21T13:12:27.876Z</time>
      </trkpt>
      <trkpt lat="43.77458" lon="5.18921">
        <ele>266.299987793</ele>
        <time>2014-08-21T13:12:31.877Z</time>
      </trkpt>
      <trkpt lat="43.77459" lon="5.18919">
        <ele>266.5</ele>
        <time>2014-08-21T13:12:32.905Z</time>
      </trkpt>
      <trkpt lat="43.77463" lon="5.1891">
        <ele>267.100006104</ele>
        <time>2014-08-21T13:12:39.878Z</time>
      </trkpt>
      <trkpt lat="43.77464" lon="5.18908">
        <ele>267.200012207</ele>
        <time>2014-08-21T13:12:40.877Z</time>
      </trkpt>
      <trkpt lat="43.77469" lon="5.18899">
        <ele>267.399993896</ele>
        <time>2014-08-21T13:12:45.877Z</time>
      </trkpt>
      <trkpt lat="43.7747" lon="5.18897">
        <ele>267.399993896</ele>
        <time>2014-08-21T13:12:46.876Z</time>
      </trkpt>
      <trkpt lat="43.77475" lon="5.18888">
        <ele>267.600006104</ele>
        <time>2014-08-21T13:12:51.878Z</time>
      </trkpt>
      <trkpt lat="43.77475" lon="5.18887">
        <ele>267.600006104</ele>
        <time>2014-08-21T13:12:52.904Z</time>
      </trkpt>
      <trkpt lat="43.77478" lon="5.18876">
        <ele>268</ele>
        <time>2014-08-21T13:12:57.877Z</time>
      </trkpt>
      <trkpt lat="43.77478" lon="5.18874">
        <ele>268.200012207</ele>
        <time>2014-08-21T13:12:58.876Z</time>
      </trkpt>
      <trkpt lat="43.77481" lon="5.18863">
        <ele>268.899993896</ele>
        <time>2014-08-21T13:13:02.91Z</time>
      </trkpt>
      <trkpt lat="43.77482" lon="5.18861">
        <ele>269.100006104</ele>
        <time>2014-08-21T13:13:03.878Z</time>
      </trkpt>
      <trkpt lat="43.77489" lon="5.18855">
        <ele>270.200012207</ele>
        <time>2014-08-21T13:13:08.915Z</time>
      </trkpt>
      <trkpt lat="43.77491" lon="5.18853">
        <ele>270.399993896</ele>
        <time>2014-08-21T13:13:09.883Z</time>
      </trkpt>
      <trkpt lat="43.77497" lon="5.18848">
        <ele>271.100006104</ele>
        <time>2014-08-21T13:13:13.896Z</time>
      </trkpt>
      <trkpt lat="43.77501" lon="5.18845">
        <ele>271.299987793</ele>
        <time>2014-08-21T13:13:14.911Z</time>
      </trkpt>
      <trkpt lat="43.77506" lon="5.18843">
        <ele>271.399993896</ele>
        <time>2014-08-21T13:13:15.882Z</time>
      </trkpt>
      <trkpt lat="43.77512" lon="5.18838">
        <ele>271.600006104</ele>
        <time>2014-08-21T13:13:16.924Z</time>
      </trkpt>
      <trkpt lat="43.77521" lon="5.18835">
        <ele>271.399993896</ele>
        <time>2014-08-21T13:13:29.877Z</time>
      </trkpt>
      <trkpt lat="43.77522" lon="5.18834">
        <ele>271.5</ele>
        <time>2014-08-21T13:13:30.877Z</time>
      </trkpt>
      <trkpt lat="43.7753" lon="5.1883">
        <ele>272</ele>
        <time>2014-08-21T13:13:37.933Z</time>
      </trkpt>
      <trkpt lat="43.77532" lon="5.18829">
        <ele>272.100006104</ele>
        <time>2014-08-21T13:13:38.876Z</time>
      </trkpt>
      <trkpt lat="43.77539" lon="5.18824">
        <ele>272.899993896</ele>
        <time>2014-08-21T13:13:42.87Z</time>
      </trkpt>
      <trkpt lat="43.77541" lon="5.18823">
        <ele>273.100006104</ele>
        <time>2014-08-21T13:13:43.869Z</time>
      </trkpt>
      <trkpt lat="43.77545" lon="5.18817">
        <ele>274.100006104</ele>
        <time>2014-08-21T13:13:51.876Z</time>
      </trkpt>
      <trkpt lat="43.77548" lon="5.18811">
        <ele>274.200012207</ele>
        <time>2014-08-21T13:13:52.89Z</time>
      </trkpt>
      <trkpt lat="43.77553" lon="5.18803">
        <ele>274.600006104</ele>
        <time>2014-08-21T13:13:56.878Z</time>
      </trkpt>
      <trkpt lat="43.77554" lon="5.188">
        <ele>274.799987793</ele>
        <time>2014-08-21T13:13:57.876Z</time>
      </trkpt>
      <trkpt lat="43.77555" lon="5.18791">
        <ele>275.399993896</ele>
        <time>2014-08-21T13:14:01.876Z</time>
      </trkpt>
      <trkpt lat="43.77555" lon="5.18788">
        <ele>275.5</ele>
        <time>2014-08-21T13:14:02.89Z</time>
      </trkpt>
      <trkpt lat="43.77558" lon="5.18778">
        <ele>275.899993896</ele>
        <time>2014-08-21T13:14:05.876Z</time>
      </trkpt>
      <trkpt lat="43.77559" lon="5.18776">
        <ele>276.100006104</ele>
        <time>2014-08-21T13:14:06.961Z</time>
      </trkpt>
      <trkpt lat="43.77562" lon="5.18764">
        <ele>277.299987793</ele>
        <time>2014-08-21T13:14:12.905Z</time>
      </trkpt>
      <trkpt lat="43.77563" lon="5.18763">
        <ele>277.5</ele>
        <time>2014-08-21T13:14:13.87Z</time>
      </trkpt>
      <trkpt lat="43.77567" lon="5.18753">
        <ele>278.700012207</ele>
        <time>2014-08-21T13:14:20.876Z</time>
      </trkpt>
      <trkpt lat="43.77568" lon="5.18751">
        <ele>278.799987793</ele>
        <time>2014-08-21T13:14:21.876Z</time>
      </trkpt>
      <trkpt lat="43.77569" lon="5.18741">
        <ele>279.899993896</ele>
        <time>2014-08-21T13:14:26.876Z</time>
      </trkpt>
      <trkpt lat="43.7757" lon="5.18739">
        <ele>280.100006104</ele>
        <time>2014-08-21T13:14:27.875Z</time>
      </trkpt>
      <trkpt lat="43.77572" lon="5.18728">
        <ele>281.299987793</ele>
        <time>2014-08-21T13:14:32.876Z</time>
      </trkpt>
      <trkpt lat="43.77572" lon="5.18726">
        <ele>281.600006104</ele>
        <time>2014-08-21T13:14:33.876Z</time>
      </trkpt>
      <trkpt lat="43.77574" lon="5.18716">
        <ele>282.399993896</ele>
        <time>2014-08-21T13:14:38.876Z</time>
      </trkpt>
      <trkpt lat="43.77575" lon="5.18714">
        <ele>282.299987793</ele>
        <time>2014-08-21T13:14:39.877Z</time>
      </trkpt>
      <trkpt lat="43.77579" lon="5.18705">
        <ele>282.200012207</ele>
        <time>2014-08-21T13:14:43.876Z</time>
      </trkpt>
      <trkpt lat="43.77579" lon="5.18702">
        <ele>282.200012207</ele>
        <time>2014-08-21T13:14:44.876Z</time>
      </trkpt>
      <trkpt lat="43.77581" lon="5.18692">
        <ele>282</ele>
        <time>2014-08-21T13:14:48.877Z</time>
      </trkpt>
      <trkpt lat="43.77581" lon="5.1869">
        <ele>282.100006104</ele>
        <time>2014-08-21T13:14:49.876Z</time>
      </trkpt>
      <trkpt lat="43.77577" lon="5.1868">
        <ele>282.899993896</ele>
        <time>2014-08-21T13:14:57.877Z</time>
      </trkpt>
      <trkpt lat="43.77577" lon="5.18678">
        <ele>282.899993896</ele>
        <time>2014-08-21T13:14:58.876Z</time>
      </trkpt>
      <trkpt lat="43.77573" lon="5.18667">
        <ele>283.5</ele>
        <time>2014-08-21T13:15:06.876Z</time>
      </trkpt>
      <trkpt lat="43.77573" lon="5.18665">
        <ele>283.600006104</ele>
        <time>2014-08-21T13:15:07.869Z</time>
      </trkpt>
      <trkpt lat="43.77573" lon="5.18654">
        <ele>284.799987793</ele>
        <time>2014-08-21T13:15:14.875Z</time>
      </trkpt>
      <trkpt lat="43.77573" lon="5.18652">
        <ele>285</ele>
        <time>2014-08-21T13:15:15.875Z</time>
      </trkpt>
      <trkpt lat="43.77572" lon="5.18641">
        <ele>286.5</ele>
        <time>2014-08-21T13:15:21.876Z</time>
      </trkpt>
      <trkpt lat="43.77571" lon="5.18639">
        <ele>286.799987793</ele>
        <time>2014-08-21T13:15:22.938Z</time>
      </trkpt>
      <trkpt lat="43.7757" lon="5.18629">
        <ele>287.899993896</ele>
        <time>2014-08-21T13:15:28.876Z</time>
      </trkpt>
      <trkpt lat="43.77568" lon="5.18626">
        <ele>287.899993896</ele>
        <time>2014-08-21T13:15:29.876Z</time>
      </trkpt>
      <trkpt lat="43.77569" lon="5.18615">
        <ele>287.700012207</ele>
        <time>2014-08-21T13:15:34.876Z</time>
      </trkpt>
      <trkpt lat="43.77569" lon="5.18613">
        <ele>287.700012207</ele>
        <time>2014-08-21T13:15:35.876Z</time>
      </trkpt>
      <trkpt lat="43.77571" lon="5.18603">
        <ele>288.200012207</ele>
        <time>2014-08-21T13:15:43.876Z</time>
      </trkpt>
      <trkpt lat="43.77572" lon="5.18601">
        <ele>288.200012207</ele>
        <time>2014-08-21T13:15:44.876Z</time>
      </trkpt>
      <trkpt lat="43.77575" lon="5.18589">
        <ele>289.399993896</ele>
        <time>2014-08-21T13:15:52.87Z</time>
      </trkpt>
      <trkpt lat="43.77575" lon="5.18588">
        <ele>289.5</ele>
        <time>2014-08-21T13:15:53.877Z</time>
      </trkpt>
      <trkpt lat="43.77577" lon="5.18577">
        <ele>290.399993896</ele>
        <time>2014-08-21T13:16:01.89Z</time>
      </trkpt>
      <trkpt lat="43.77577" lon="5.18575">
        <ele>290.5</ele>
        <time>2014-08-21T13:16:02.875Z</time>
      </trkpt>
      <trkpt lat="43.77577" lon="5.18563">
        <ele>290.200012207</ele>
        <time>2014-08-21T13:16:12.876Z</time>
      </trkpt>
      <trkpt lat="43.77578" lon="5.18562">
        <ele>290.399993896</ele>
        <time>2014-08-21T13:16:13.876Z</time>
      </trkpt>
      <trkpt lat="43.77579" lon="5.18556">
        <ele>289</ele>
        <time>2014-08-21T13:16:21.181Z</time>
      </trkpt>
      <trkpt lat="43.77604" lon="5.18362">
        <ele>292.899993896</ele>
        <time>2014-08-21T13:18:01.342Z</time>
      </trkpt>
      <trkpt lat="43.77605" lon="5.1835">
        <ele>296.100006104</ele>
        <time>2014-08-21T13:20:23.422Z</time>
      </trkpt>
      <trkpt lat="43.77605" lon="5.18349">
        <ele>296.200012207</ele>
        <time>2014-08-21T13:20:24.422Z</time>
      </trkpt>
      <trkpt lat="43.77607" lon="5.18338">
        <ele>294.899993896</ele>
        <time>2014-08-21T13:20:33.471Z</time>
      </trkpt>
      <trkpt lat="43.77607" lon="5.18336">
        <ele>294.700012207</ele>
        <time>2014-08-21T13:20:34.421Z</time>
      </trkpt>
      <trkpt lat="43.77613" lon="5.18327">
        <ele>287.299987793</ele>
        <time>2014-08-21T13:20:57.422Z</time>
      </trkpt>
      <trkpt lat="43.77612" lon="5.18324">
        <ele>286.899993896</ele>
        <time>2014-08-21T13:20:58.422Z</time>
      </trkpt>
      <trkpt lat="43.77612" lon="5.18313">
        <ele>285.600006104</ele>
        <time>2014-08-21T13:21:08.421Z</time>
      </trkpt>
      <trkpt lat="43.77613" lon="5.18311">
        <ele>285.5</ele>
        <time>2014-08-21T13:21:09.421Z</time>
      </trkpt>
      <trkpt lat="43.77612" lon="5.18301">
        <ele>285.100006104</ele>
        <time>2014-08-21T13:21:17.422Z</time>
      </trkpt>
      <trkpt lat="43.77612" lon="5.18299">
        <ele>285.200012207</ele>
        <time>2014-08-21T13:21:18.422Z</time>
      </trkpt>
      <trkpt lat="43.77611" lon="5.18287">
        <ele>284.5</ele>
        <time>2014-08-21T13:21:28.675Z</time>
      </trkpt>
      <trkpt lat="43.77611" lon="5.18286">
        <ele>284.299987793</ele>
        <time>2014-08-21T13:21:29.504Z</time>
      </trkpt>
      <trkpt lat="43.77613" lon="5.18279">
        <ele>283.5</ele>
        <time>2014-08-21T13:21:33.439Z</time>
      </trkpt>
      <trkpt lat="43.77616" lon="5.18275">
        <ele>283.200012207</ele>
        <time>2014-08-21T13:21:34.423Z</time>
      </trkpt>
      <trkpt lat="43.77614" lon="5.18263">
        <ele>281.100006104</ele>
        <time>2014-08-21T13:21:39.422Z</time>
      </trkpt>
      <trkpt lat="43.77615" lon="5.18262">
        <ele>280.600006104</ele>
        <time>2014-08-21T13:21:40.423Z</time>
      </trkpt>
      <trkpt lat="43.77622" lon="5.18255">
        <ele>278.899993896</ele>
        <time>2014-08-21T13:21:48.416Z</time>
      </trkpt>
      <trkpt lat="43.77623" lon="5.18255">
        <ele>279.100006104</ele>
        <time>2014-08-21T13:21:49.422Z</time>
      </trkpt>
      <trkpt lat="43.77625" lon="5.18244">
        <ele>281.899993896</ele>
        <time>2014-08-21T13:21:58.421Z</time>
      </trkpt>
      <trkpt lat="43.77624" lon="5.18242">
        <ele>283.299987793</ele>
        <time>2014-08-21T13:21:59.422Z</time>
      </trkpt>
      <trkpt lat="43.77623" lon="5.18239">
        <ele>286.399993896</ele>
        <time>2014-08-21T13:22:18.827Z</time>
      </trkpt>
      <trkpt lat="43.77629" lon="5.18213">
        <ele>281.5</ele>
        <time>2014-08-21T13:22:42.864Z</time>
      </trkpt>
      <trkpt lat="43.7763" lon="5.18202">
        <ele>302.899993896</ele>
        <time>2014-08-21T13:23:28.421Z</time>
      </trkpt>
      <trkpt lat="43.7763" lon="5.182">
        <ele>303.100006104</ele>
        <time>2014-08-21T13:23:29.595Z</time>
      </trkpt>
      <trkpt lat="43.77632" lon="5.18188">
        <ele>304.399993896</ele>
        <time>2014-08-21T13:23:47.441Z</time>
      </trkpt>
      <trkpt lat="43.77631" lon="5.18187">
        <ele>304.399993896</ele>
        <time>2014-08-21T13:23:48.454Z</time>
      </trkpt>
      <trkpt lat="43.77629" lon="5.18177">
        <ele>306.5</ele>
        <time>2014-08-21T13:23:54.419Z</time>
      </trkpt>
      <trkpt lat="43.77629" lon="5.18174">
        <ele>306.5</ele>
        <time>2014-08-21T13:23:55.437Z</time>
      </trkpt>
      <trkpt lat="43.77627" lon="5.18162">
        <ele>300.899993896</ele>
        <time>2014-08-21T13:24:07.42Z</time>
      </trkpt>
      <trkpt lat="43.77626" lon="5.18162">
        <ele>300.700012207</ele>
        <time>2014-08-21T13:24:08.42Z</time>
      </trkpt>
      <trkpt lat="43.77621" lon="5.18153">
        <ele>303.5</ele>
        <time>2014-08-21T13:24:28.418Z</time>
      </trkpt>
      <trkpt lat="43.77621" lon="5.18152">
        <ele>303.399993896</ele>
        <time>2014-08-21T13:24:29.417Z</time>
      </trkpt>
      <trkpt lat="43.77623" lon="5.1814">
        <ele>304.5</ele>
        <time>2014-08-21T13:24:38.42Z</time>
      </trkpt>
      <trkpt lat="43.77624" lon="5.18139">
        <ele>304.600006104</ele>
        <time>2014-08-21T13:24:39.418Z</time>
      </trkpt>
      <trkpt lat="43.77623" lon="5.18128">
        <ele>305.299987793</ele>
        <time>2014-08-21T13:24:53.418Z</time>
      </trkpt>
      <trkpt lat="43.77622" lon="5.18127">
        <ele>305.399993896</ele>
        <time>2014-08-21T13:24:54.418Z</time>
      </trkpt>
      <trkpt lat="43.77621" lon="5.18117">
        <ele>305.700012207</ele>
        <time>2014-08-21T13:24:59.414Z</time>
      </trkpt>
      <trkpt lat="43.7762" lon="5.18115">
        <ele>305.700012207</ele>
        <time>2014-08-21T13:25:00.414Z</time>
      </trkpt>
      <trkpt lat="43.77619" lon="5.18103">
        <ele>306.700012207</ele>
        <time>2014-08-21T13:25:06.419Z</time>
      </trkpt>
      <trkpt lat="43.77619" lon="5.18101">
        <ele>306.899993896</ele>
        <time>2014-08-21T13:25:07.418Z</time>
      </trkpt>
      <trkpt lat="43.77619" lon="5.1809">
        <ele>307.799987793</ele>
        <time>2014-08-21T13:25:13.418Z</time>
      </trkpt>
      <trkpt lat="43.77619" lon="5.18088">
        <ele>307.799987793</ele>
        <time>2014-08-21T13:25:14.418Z</time>
      </trkpt>
      <trkpt lat="43.77616" lon="5.18076">
        <ele>308.399993896</ele>
        <time>2014-08-21T13:25:21.418Z</time>
      </trkpt>
      <trkpt lat="43.77616" lon="5.18073">
        <ele>308.399993896</ele>
        <time>2014-08-21T13:25:22.419Z</time>
      </trkpt>
      <trkpt lat="43.77615" lon="5.1806">
        <ele>308.799987793</ele>
        <time>2014-08-21T13:25:27.438Z</time>
      </trkpt>
      <trkpt lat="43.77614" lon="5.18059">
        <ele>308.899993896</ele>
        <time>2014-08-21T13:25:28.419Z</time>
      </trkpt>
      <trkpt lat="43.77613" lon="5.18049">
        <ele>309.399993896</ele>
        <time>2014-08-21T13:25:33.418Z</time>
      </trkpt>
      <trkpt lat="43.77612" lon="5.18046">
        <ele>309.299987793</ele>
        <time>2014-08-21T13:25:34.418Z</time>
      </trkpt>
      <trkpt lat="43.77612" lon="5.18035">
        <ele>309.899993896</ele>
        <time>2014-08-21T13:25:43.417Z</time>
      </trkpt>
      <trkpt lat="43.77612" lon="5.18034">
        <ele>309.899993896</ele>
        <time>2014-08-21T13:25:44.419Z</time>
      </trkpt>
      <trkpt lat="43.77615" lon="5.18023">
        <ele>310.100006104</ele>
        <time>2014-08-21T13:25:51.418Z</time>
      </trkpt>
      <trkpt lat="43.77614" lon="5.18021">
        <ele>310.200012207</ele>
        <time>2014-08-21T13:25:52.418Z</time>
      </trkpt>
      <trkpt lat="43.77614" lon="5.1801">
        <ele>310.600006104</ele>
        <time>2014-08-21T13:26:01.418Z</time>
      </trkpt>
      <trkpt lat="43.77614" lon="5.18009">
        <ele>310.600006104</ele>
        <time>2014-08-21T13:26:02.421Z</time>
      </trkpt>
      <trkpt lat="43.77617" lon="5.17999">
        <ele>310.299987793</ele>
        <time>2014-08-21T13:26:08.42Z</time>
      </trkpt>
      <trkpt lat="43.77617" lon="5.17997">
        <ele>310.299987793</ele>
        <time>2014-08-21T13:26:09.417Z</time>
      </trkpt>
      <trkpt lat="43.77615" lon="5.17986">
        <ele>310.399993896</ele>
        <time>2014-08-21T13:26:15.419Z</time>
      </trkpt>
      <trkpt lat="43.77614" lon="5.17985">
        <ele>310.399993896</ele>
        <time>2014-08-21T13:26:16.419Z</time>
      </trkpt>
      <trkpt lat="43.77613" lon="5.17973">
        <ele>310.5</ele>
        <time>2014-08-21T13:26:28.418Z</time>
      </trkpt>
      <trkpt lat="43.77613" lon="5.1797">
        <ele>310.399993896</ele>
        <time>2014-08-21T13:26:29.418Z</time>
      </trkpt>
      <trkpt lat="43.7761" lon="5.17959">
        <ele>310.100006104</ele>
        <time>2014-08-21T13:26:36.427Z</time>
      </trkpt>
      <trkpt lat="43.7761" lon="5.17958">
        <ele>310.200012207</ele>
        <time>2014-08-21T13:26:37.418Z</time>
      </trkpt>
      <trkpt lat="43.7761" lon="5.17947">
        <ele>310.299987793</ele>
        <time>2014-08-21T13:26:43.417Z</time>
      </trkpt>
      <trkpt lat="43.7761" lon="5.17945">
        <ele>310.100006104</ele>
        <time>2014-08-21T13:26:44.419Z</time>
      </trkpt>
      <trkpt lat="43.77612" lon="5.17933">
        <ele>309.100006104</ele>
        <time>2014-08-21T13:26:54.419Z</time>
      </trkpt>
      <trkpt lat="43.77612" lon="5.17931">
        <ele>309.100006104</ele>
        <time>2014-08-21T13:26:55.418Z</time>
      </trkpt>
      <trkpt lat="43.77617" lon="5.17923">
        <ele>308.399993896</ele>
        <time>2014-08-21T13:27:02.42Z</time>
      </trkpt>
      <trkpt lat="43.77619" lon="5.17921">
        <ele>308.299987793</ele>
        <time>2014-08-21T13:27:03.419Z</time>
      </trkpt>
      <trkpt lat="43.77621" lon="5.1791">
        <ele>307.299987793</ele>
        <time>2014-08-21T13:27:09.414Z</time>
      </trkpt>
      <trkpt lat="43.77621" lon="5.17908">
        <ele>307.200012207</ele>
        <time>2014-08-21T13:27:10.418Z</time>
      </trkpt>
      <trkpt lat="43.77624" lon="5.17897">
        <ele>306</ele>
        <time>2014-08-21T13:27:18.418Z</time>
      </trkpt>
      <trkpt lat="43.77625" lon="5.17896">
        <ele>305.799987793</ele>
        <time>2014-08-21T13:27:19.418Z</time>
      </trkpt>
      <trkpt lat="43.7763" lon="5.17886">
        <ele>304.399993896</ele>
        <time>2014-08-21T13:27:28.415Z</time>
      </trkpt>
      <trkpt lat="43.77629" lon="5.17885">
        <ele>304.299987793</ele>
        <time>2014-08-21T13:27:29.42Z</time>
      </trkpt>
      <trkpt lat="43.77629" lon="5.17883">
        <ele>304.200012207</ele>
        <time>2014-08-21T13:27:30.967Z</time>
      </trkpt>
      <trkpt lat="43.77638" lon="5.17858">
        <ele>302.899993896</ele>
        <time>2014-08-21T13:28:16.129Z</time>
      </trkpt>
      <trkpt lat="43.77638" lon="5.17858">
        <ele>302.899993896</ele>
        <time>2014-08-21T13:29:29.523Z</time>
      </trkpt>
      <trkpt lat="43.77673" lon="5.17757">
        <ele>305.399993896</ele>
        <time>2014-08-21T13:38:32.684Z</time>
      </trkpt>
      <trkpt lat="43.77676" lon="5.17746">
        <ele>305.299987793</ele>
        <time>2014-08-21T13:38:45.418Z</time>
      </trkpt>
      <trkpt lat="43.77676" lon="5.17742">
        <ele>305.399993896</ele>
        <time>2014-08-21T13:38:46.419Z</time>
      </trkpt>
      <trkpt lat="43.77678" lon="5.17731">
        <ele>305.799987793</ele>
        <time>2014-08-21T13:39:03.417Z</time>
      </trkpt>
      <trkpt lat="43.77679" lon="5.17731">
        <ele>305.799987793</ele>
        <time>2014-08-21T13:39:04.416Z</time>
      </trkpt>
      <trkpt lat="43.77682" lon="5.1772">
        <ele>306.299987793</ele>
        <time>2014-08-21T13:39:12.418Z</time>
      </trkpt>
      <trkpt lat="43.77683" lon="5.17719">
        <ele>306.299987793</ele>
        <time>2014-08-21T13:39:13.417Z</time>
      </trkpt>
      <trkpt lat="43.77686" lon="5.17709">
        <ele>306.600006104</ele>
        <time>2014-08-21T13:39:19.417Z</time>
      </trkpt>
      <trkpt lat="43.77686" lon="5.17706">
        <ele>306.600006104</ele>
        <time>2014-08-21T13:39:20.419Z</time>
      </trkpt>
      <trkpt lat="43.77684" lon="5.17695">
        <ele>306.799987793</ele>
        <time>2014-08-21T13:39:26.421Z</time>
      </trkpt>
      <trkpt lat="43.77684" lon="5.17693">
        <ele>306.899993896</ele>
        <time>2014-08-21T13:39:27.419Z</time>
      </trkpt>
      <trkpt lat="43.77684" lon="5.17682">
        <ele>307</ele>
        <time>2014-08-21T13:39:32.42Z</time>
      </trkpt>
      <trkpt lat="43.77683" lon="5.1768">
        <ele>307.100006104</ele>
        <time>2014-08-21T13:39:33.434Z</time>
      </trkpt>
      <trkpt lat="43.77678" lon="5.17672">
        <ele>307.5</ele>
        <time>2014-08-21T13:39:41.419Z</time>
      </trkpt>
      <trkpt lat="43.77677" lon="5.1767">
        <ele>307.600006104</ele>
        <time>2014-08-21T13:39:42.419Z</time>
      </trkpt>
      <trkpt lat="43.77673" lon="5.17662">
        <ele>307.700012207</ele>
        <time>2014-08-21T13:39:46.418Z</time>
      </trkpt>
      <trkpt lat="43.77672" lon="5.1766">
        <ele>307.700012207</ele>
        <time>2014-08-21T13:39:47.419Z</time>
      </trkpt>
      <trkpt lat="43.77666" lon="5.17651">
        <ele>307.899993896</ele>
        <time>2014-08-21T13:39:52.419Z</time>
      </trkpt>
      <trkpt lat="43.77665" lon="5.1765">
        <ele>307.899993896</ele>
        <time>2014-08-21T13:39:53.418Z</time>
      </trkpt>
      <trkpt lat="43.77658" lon="5.17645">
        <ele>308.299987793</ele>
        <time>2014-08-21T13:39:59.418Z</time>
      </trkpt>
      <trkpt lat="43.77656" lon="5.17644">
        <ele>308.299987793</ele>
        <time>2014-08-21T13:40:00.419Z</time>
      </trkpt>
      <trkpt lat="43.7765" lon="5.17639">
        <ele>308.5</ele>
        <time>2014-08-21T13:40:03.418Z</time>
      </trkpt>
      <trkpt lat="43.77647" lon="5.17637">
        <ele>308.5</ele>
        <time>2014-08-21T13:40:04.418Z</time>
      </trkpt>
      <trkpt lat="43.7764" lon="5.17634">
        <ele>308.799987793</ele>
        <time>2014-08-21T13:40:08.421Z</time>
      </trkpt>
      <trkpt lat="43.77639" lon="5.17634">
        <ele>308.899993896</ele>
        <time>2014-08-21T13:40:09.418Z</time>
      </trkpt>
      <trkpt lat="43.77631" lon="5.1763">
        <ele>309.200012207</ele>
        <time>2014-08-21T13:40:15.418Z</time>
      </trkpt>
      <trkpt lat="43.7763" lon="5.1763">
        <ele>309.299987793</ele>
        <time>2014-08-21T13:40:16.419Z</time>
      </trkpt>
      <trkpt lat="43.77624" lon="5.17621">
        <ele>309.299987793</ele>
        <time>2014-08-21T13:40:22.418Z</time>
      </trkpt>
      <trkpt lat="43.77624" lon="5.1762">
        <ele>309.299987793</ele>
        <time>2014-08-21T13:40:23.418Z</time>
      </trkpt>
      <trkpt lat="43.7762" lon="5.1761">
        <ele>309.399993896</ele>
        <time>2014-08-21T13:40:28.418Z</time>
      </trkpt>
      <trkpt lat="43.77619" lon="5.17608">
        <ele>309.399993896</ele>
        <time>2014-08-21T13:40:29.424Z</time>
      </trkpt>
      <trkpt lat="43.77615" lon="5.176">
        <ele>309.399993896</ele>
        <time>2014-08-21T13:40:33.42Z</time>
      </trkpt>
      <trkpt lat="43.77615" lon="5.17597">
        <ele>309.299987793</ele>
        <time>2014-08-21T13:40:34.418Z</time>
      </trkpt>
      <trkpt lat="43.77613" lon="5.17586">
        <ele>308.700012207</ele>
        <time>2014-08-21T13:40:39.419Z</time>
      </trkpt>
      <trkpt lat="43.77613" lon="5.17584">
        <ele>308.600006104</ele>
        <time>2014-08-21T13:40:40.419Z</time>
      </trkpt>
      <trkpt lat="43.77608" lon="5.17574">
        <ele>308</ele>
        <time>2014-08-21T13:40:46.418Z</time>
      </trkpt>
      <trkpt lat="43.77608" lon="5.17571">
        <ele>308</ele>
        <time>2014-08-21T13:40:47.419Z</time>
      </trkpt>
      <trkpt lat="43.77608" lon="5.17561">
        <ele>307.399993896</ele>
        <time>2014-08-21T13:40:51.419Z</time>
      </trkpt>
      <trkpt lat="43.77609" lon="5.17559">
        <ele>307.299987793</ele>
        <time>2014-08-21T13:40:52.419Z</time>
      </trkpt>
      <trkpt lat="43.7761" lon="5.17548">
        <ele>306.700012207</ele>
        <time>2014-08-21T13:40:58.418Z</time>
      </trkpt>
      <trkpt lat="43.7761" lon="5.17546">
        <ele>306.700012207</ele>
        <time>2014-08-21T13:40:59.418Z</time>
      </trkpt>
      <trkpt lat="43.77607" lon="5.17536">
        <ele>306.299987793</ele>
        <time>2014-08-21T13:41:03.418Z</time>
      </trkpt>
      <trkpt lat="43.77606" lon="5.17533">
        <ele>306</ele>
        <time>2014-08-21T13:41:04.419Z</time>
      </trkpt>
      <trkpt lat="43.77604" lon="5.17523">
        <ele>305</ele>
        <time>2014-08-21T13:41:08.42Z</time>
      </trkpt>
      <trkpt lat="43.77604" lon="5.17521">
        <ele>304.600006104</ele>
        <time>2014-08-21T13:41:09.418Z</time>
      </trkpt>
      <trkpt lat="43.77601" lon="5.17511">
        <ele>303.5</ele>
        <time>2014-08-21T13:41:14.421Z</time>
      </trkpt>
      <trkpt lat="43.776" lon="5.17509">
        <ele>303.299987793</ele>
        <time>2014-08-21T13:41:15.418Z</time>
      </trkpt>
      <trkpt lat="43.77595" lon="5.17499">
        <ele>301.600006104</ele>
        <time>2014-08-21T13:41:25.419Z</time>
      </trkpt>
      <trkpt lat="43.77594" lon="5.17499">
        <ele>301.299987793</ele>
        <time>2014-08-21T13:41:26.42Z</time>
      </trkpt>
      <trkpt lat="43.77585" lon="5.17497">
        <ele>299.299987793</ele>
        <time>2014-08-21T13:41:34.419Z</time>
      </trkpt>
      <trkpt lat="43.77584" lon="5.17498">
        <ele>299.200012207</ele>
        <time>2014-08-21T13:41:35.418Z</time>
      </trkpt>
      <trkpt lat="43.77575" lon="5.17496">
        <ele>298.700012207</ele>
        <time>2014-08-21T13:41:43.418Z</time>
      </trkpt>
      <trkpt lat="43.77575" lon="5.17495">
        <ele>298.700012207</ele>
        <time>2014-08-21T13:41:44.42Z</time>
      </trkpt>
      <trkpt lat="43.77567" lon="5.17492">
        <ele>298.399993896</ele>
        <time>2014-08-21T13:41:56.419Z</time>
      </trkpt>
      <trkpt lat="43.77566" lon="5.17492">
        <ele>298.399993896</ele>
        <time>2014-08-21T13:41:57.418Z</time>
      </trkpt>
      <trkpt lat="43.77559" lon="5.17488">
        <ele>297.799987793</ele>
        <time>2014-08-21T13:42:04.417Z</time>
      </trkpt>
      <trkpt lat="43.77557" lon="5.17486">
        <ele>297.700012207</ele>
        <time>2014-08-21T13:42:05.418Z</time>
      </trkpt>
      <trkpt lat="43.77554" lon="5.17488">
        <ele>296.700012207</ele>
        <time>2014-08-21T13:42:10.534Z</time>
      </trkpt>
      <trkpt lat="43.77504" lon="5.1757">
        <ele>105.199996948</ele>
        <time>2014-08-21T13:45:07.452Z</time>
      </trkpt>
      <trkpt lat="43.77429" lon="5.17525">
        <ele>283.5</ele>
        <time>2014-08-21T13:48:36.498Z</time>
      </trkpt>
      <trkpt lat="43.77425" lon="5.17534">
        <ele>284.299987793</ele>
        <time>2014-08-21T13:48:50.414Z</time>
      </trkpt>
      <trkpt lat="43.77424" lon="5.17536">
        <ele>284.299987793</ele>
        <time>2014-08-21T13:48:51.417Z</time>
      </trkpt>
      <trkpt lat="43.7742" lon="5.17546">
        <ele>284.200012207</ele>
        <time>2014-08-21T13:48:59.416Z</time>
      </trkpt>
      <trkpt lat="43.7742" lon="5.17547">
        <ele>284.100006104</ele>
        <time>2014-08-21T13:49:00.416Z</time>
      </trkpt>
      <trkpt lat="43.77416" lon="5.17556">
        <ele>284</ele>
        <time>2014-08-21T13:49:05.417Z</time>
      </trkpt>
      <trkpt lat="43.77416" lon="5.17563">
        <ele>284</ele>
        <time>2014-08-21T13:49:06.416Z</time>
      </trkpt>
      <trkpt lat="43.77413" lon="5.17574">
        <ele>284.100006104</ele>
        <time>2014-08-21T13:49:10.416Z</time>
      </trkpt>
      <trkpt lat="43.77413" lon="5.17576">
        <ele>284.899993896</ele>
        <time>2014-08-21T13:49:11.416Z</time>
      </trkpt>
      <trkpt lat="43.7741" lon="5.17585">
        <ele>284</ele>
        <time>2014-08-21T13:49:19.416Z</time>
      </trkpt>
      <trkpt lat="43.77401" lon="5.17585">
        <ele>285.200012207</ele>
        <time>2014-08-21T13:49:20.419Z</time>
      </trkpt>
      <trkpt lat="43.77393" lon="5.17588">
        <ele>284.799987793</ele>
        <time>2014-08-21T13:49:25.416Z</time>
      </trkpt>
      <trkpt lat="43.77392" lon="5.17588">
        <ele>285.100006104</ele>
        <time>2014-08-21T13:49:26.418Z</time>
      </trkpt>
      <trkpt lat="43.77385" lon="5.17596">
        <ele>284.700012207</ele>
        <time>2014-08-21T13:49:33.419Z</time>
      </trkpt>
      <trkpt lat="43.77386" lon="5.17599">
        <ele>284.799987793</ele>
        <time>2014-08-21T13:49:34.419Z</time>
      </trkpt>
      <trkpt lat="43.77378" lon="5.17605">
        <ele>284.5</ele>
        <time>2014-08-21T13:50:18.417Z</time>
      </trkpt>
      <trkpt lat="43.77378" lon="5.17607">
        <ele>284.5</ele>
        <time>2014-08-21T13:50:19.41Z</time>
      </trkpt>
      <trkpt lat="43.77376" lon="5.17617">
        <ele>284.700012207</ele>
        <time>2014-08-21T13:50:23.416Z</time>
      </trkpt>
      <trkpt lat="43.77375" lon="5.17619">
        <ele>284.799987793</ele>
        <time>2014-08-21T13:50:24.417Z</time>
      </trkpt>
      <trkpt lat="43.77371" lon="5.17628">
        <ele>285.100006104</ele>
        <time>2014-08-21T13:50:29.416Z</time>
      </trkpt>
      <trkpt lat="43.7737" lon="5.1763">
        <ele>285.100006104</ele>
        <time>2014-08-21T13:50:30.417Z</time>
      </trkpt>
      <trkpt lat="43.77364" lon="5.17635">
        <ele>285</ele>
        <time>2014-08-21T13:50:34.416Z</time>
      </trkpt>
      <trkpt lat="43.77362" lon="5.17636">
        <ele>285</ele>
        <time>2014-08-21T13:50:35.417Z</time>
      </trkpt>
      <trkpt lat="43.77355" lon="5.1764">
        <ele>284.700012207</ele>
        <time>2014-08-21T13:50:39.416Z</time>
      </trkpt>
      <trkpt lat="43.77353" lon="5.17641">
        <ele>284.700012207</ele>
        <time>2014-08-21T13:50:40.417Z</time>
      </trkpt>
      <trkpt lat="43.77347" lon="5.17647">
        <ele>284.399993896</ele>
        <time>2014-08-21T13:50:44.419Z</time>
      </trkpt>
      <trkpt lat="43.77344" lon="5.17647">
        <ele>284.299987793</ele>
        <time>2014-08-21T13:50:45.417Z</time>
      </trkpt>
      <trkpt lat="43.77339" lon="5.17657">
        <ele>283.299987793</ele>
        <time>2014-08-21T13:50:52.416Z</time>
      </trkpt>
      <trkpt lat="43.77339" lon="5.17659">
        <ele>283.100006104</ele>
        <time>2014-08-21T13:50:53.417Z</time>
      </trkpt>
      <trkpt lat="43.77331" lon="5.17659">
        <ele>282.899993896</ele>
        <time>2014-08-21T13:50:55.458Z</time>
      </trkpt>
      <trkpt lat="43.77324" lon="5.17649">
        <ele>282.600006104</ele>
        <time>2014-08-21T13:50:56.422Z</time>
      </trkpt>
      <trkpt lat="43.77318" lon="5.17649">
        <ele>280.799987793</ele>
        <time>2014-08-21T13:51:00.429Z</time>
      </trkpt>
      <trkpt lat="43.77313" lon="5.17652">
        <ele>280.399993896</ele>
        <time>2014-08-21T13:51:01.417Z</time>
      </trkpt>
      <trkpt lat="43.77309" lon="5.1766">
        <ele>279.100006104</ele>
        <time>2014-08-21T13:51:04.416Z</time>
      </trkpt>
      <trkpt lat="43.77307" lon="5.17662">
        <ele>278.700012207</ele>
        <time>2014-08-21T13:51:05.417Z</time>
      </trkpt>
      <trkpt lat="43.77302" lon="5.17671">
        <ele>276.299987793</ele>
        <time>2014-08-21T13:51:10.738Z</time>
      </trkpt>
      <trkpt lat="43.77303" lon="5.17674">
        <ele>275.799987793</ele>
        <time>2014-08-21T13:51:11.417Z</time>
      </trkpt>
      <trkpt lat="43.77304" lon="5.17685">
        <ele>274.700012207</ele>
        <time>2014-08-21T13:51:16.417Z</time>
      </trkpt>
      <trkpt lat="43.77304" lon="5.17687">
        <ele>274.5</ele>
        <time>2014-08-21T13:51:17.416Z</time>
      </trkpt>
      <trkpt lat="43.77306" lon="5.17698">
        <ele>274.600006104</ele>
        <time>2014-08-21T13:51:23.416Z</time>
      </trkpt>
      <trkpt lat="43.77305" lon="5.17699">
        <ele>274.799987793</ele>
        <time>2014-08-21T13:51:24.471Z</time>
      </trkpt>
      <trkpt lat="43.77305" lon="5.17712">
        <ele>276.799987793</ele>
        <time>2014-08-21T13:51:30.416Z</time>
      </trkpt>
      <trkpt lat="43.77306" lon="5.17714">
        <ele>277.100006104</ele>
        <time>2014-08-21T13:51:31.416Z</time>
      </trkpt>
      <trkpt lat="43.77307" lon="5.17723">
        <ele>278.600006104</ele>
        <time>2014-08-21T13:51:35.417Z</time>
      </trkpt>
      <trkpt lat="43.77307" lon="5.17726">
        <ele>278.799987793</ele>
        <time>2014-08-21T13:51:36.416Z</time>
      </trkpt>
      <trkpt lat="43.77307" lon="5.17737">
        <ele>280.5</ele>
        <time>2014-08-21T13:51:41.416Z</time>
      </trkpt>
      <trkpt lat="43.77307" lon="5.17741">
        <ele>280.700012207</ele>
        <time>2014-08-21T13:51:42.416Z</time>
      </trkpt>
      <trkpt lat="43.77308" lon="5.17752">
        <ele>281.799987793</ele>
        <time>2014-08-21T13:51:46.417Z</time>
      </trkpt>
      <trkpt lat="43.77308" lon="5.17756">
        <ele>282.100006104</ele>
        <time>2014-08-21T13:51:47.416Z</time>
      </trkpt>
      <trkpt lat="43.77308" lon="5.17767">
        <ele>283.299987793</ele>
        <time>2014-08-21T13:51:51.452Z</time>
      </trkpt>
      <trkpt lat="43.77308" lon="5.17768">
        <ele>283.700012207</ele>
        <time>2014-08-21T13:51:52.416Z</time>
      </trkpt>
      <trkpt lat="43.77303" lon="5.17778">
        <ele>285.899993896</ele>
        <time>2014-08-21T13:52:27.416Z</time>
      </trkpt>
      <trkpt lat="43.77302" lon="5.1778">
        <ele>286</ele>
        <time>2014-08-21T13:52:28.416Z</time>
      </trkpt>
      <trkpt lat="43.77298" lon="5.1779">
        <ele>285.5</ele>
        <time>2014-08-21T13:52:36.415Z</time>
      </trkpt>
      <trkpt lat="43.77297" lon="5.17791">
        <ele>285.5</ele>
        <time>2014-08-21T13:52:37.416Z</time>
      </trkpt>
      <trkpt lat="43.77292" lon="5.17801">
        <ele>285.100006104</ele>
        <time>2014-08-21T13:52:55.417Z</time>
      </trkpt>
      <trkpt lat="43.77292" lon="5.17803">
        <ele>285.100006104</ele>
        <time>2014-08-21T13:52:56.418Z</time>
      </trkpt>
      <trkpt lat="43.77288" lon="5.17813">
        <ele>284.399993896</ele>
        <time>2014-08-21T13:53:02.419Z</time>
      </trkpt>
      <trkpt lat="43.77287" lon="5.17815">
        <ele>284.299987793</ele>
        <time>2014-08-21T13:53:03.415Z</time>
      </trkpt>
      <trkpt lat="43.77283" lon="5.17826">
        <ele>283.899993896</ele>
        <time>2014-08-21T13:53:10.415Z</time>
      </trkpt>
      <trkpt lat="43.77283" lon="5.17828">
        <ele>283.899993896</ele>
        <time>2014-08-21T13:53:11.416Z</time>
      </trkpt>
      <trkpt lat="43.7728" lon="5.17839">
        <ele>283.799987793</ele>
        <time>2014-08-21T13:53:17.416Z</time>
      </trkpt>
      <trkpt lat="43.7728" lon="5.17841">
        <ele>283.799987793</ele>
        <time>2014-08-21T13:53:18.416Z</time>
      </trkpt>
      <trkpt lat="43.77276" lon="5.17851">
        <ele>283.200012207</ele>
        <time>2014-08-21T13:53:23.416Z</time>
      </trkpt>
      <trkpt lat="43.77276" lon="5.17852">
        <ele>283</ele>
        <time>2014-08-21T13:53:24.415Z</time>
      </trkpt>
      <trkpt lat="43.7727" lon="5.17861">
        <ele>282.299987793</ele>
        <time>2014-08-21T13:53:28.416Z</time>
      </trkpt>
      <trkpt lat="43.77269" lon="5.17864">
        <ele>282.100006104</ele>
        <time>2014-08-21T13:53:29.415Z</time>
      </trkpt>
      <trkpt lat="43.77266" lon="5.17875">
        <ele>281</ele>
        <time>2014-08-21T13:53:34.415Z</time>
      </trkpt>
      <trkpt lat="43.77266" lon="5.17877">
        <ele>280.700012207</ele>
        <time>2014-08-21T13:53:35.415Z</time>
      </trkpt>
      <trkpt lat="43.77263" lon="5.17889">
        <ele>279.299987793</ele>
        <time>2014-08-21T13:53:45.416Z</time>
      </trkpt>
      <trkpt lat="43.77263" lon="5.1789">
        <ele>279.299987793</ele>
        <time>2014-08-21T13:53:46.416Z</time>
      </trkpt>
      <trkpt lat="43.7726" lon="5.17901">
        <ele>279.100006104</ele>
        <time>2014-08-21T13:54:03.415Z</time>
      </trkpt>
      <trkpt lat="43.7726" lon="5.17902">
        <ele>279</ele>
        <time>2014-08-21T13:54:04.415Z</time>
      </trkpt>
      <trkpt lat="43.77261" lon="5.17913">
        <ele>278.299987793</ele>
        <time>2014-08-21T13:54:12.415Z</time>
      </trkpt>
      <trkpt lat="43.77261" lon="5.17916">
        <ele>278.299987793</ele>
        <time>2014-08-21T13:54:13.415Z</time>
      </trkpt>
      <trkpt lat="43.77261" lon="5.17928">
        <ele>280.299987793</ele>
        <time>2014-08-21T13:54:21.416Z</time>
      </trkpt>
      <trkpt lat="43.77261" lon="5.17929">
        <ele>280.299987793</ele>
        <time>2014-08-21T13:54:22.416Z</time>
      </trkpt>
      <trkpt lat="43.77262" lon="5.17939">
        <ele>281.399993896</ele>
        <time>2014-08-21T13:55:19.415Z</time>
      </trkpt>
      <trkpt lat="43.77263" lon="5.17946">
        <ele>281.600006104</ele>
        <time>2014-08-21T13:55:20.419Z</time>
      </trkpt>
      <trkpt lat="43.7726" lon="5.17955">
        <ele>281.5</ele>
        <time>2014-08-21T13:55:26.417Z</time>
      </trkpt>
      <trkpt lat="43.77259" lon="5.17957">
        <ele>281.5</ele>
        <time>2014-08-21T13:55:27.415Z</time>
      </trkpt>
      <trkpt lat="43.77258" lon="5.17969">
        <ele>281.200012207</ele>
        <time>2014-08-21T13:55:33.415Z</time>
      </trkpt>
      <trkpt lat="43.77257" lon="5.17971">
        <ele>281.200012207</ele>
        <time>2014-08-21T13:55:34.415Z</time>
      </trkpt>
      <trkpt lat="43.77256" lon="5.17981">
        <ele>283</ele>
        <time>2014-08-21T13:56:04.415Z</time>
      </trkpt>
      <trkpt lat="43.77255" lon="5.17983">
        <ele>283.100006104</ele>
        <time>2014-08-21T13:56:05.415Z</time>
      </trkpt>
      <trkpt lat="43.77254" lon="5.17994">
        <ele>283.5</ele>
        <time>2014-08-21T13:56:10.415Z</time>
      </trkpt>
      <trkpt lat="43.77254" lon="5.17996">
        <ele>283.700012207</ele>
        <time>2014-08-21T13:56:11.415Z</time>
      </trkpt>
      <trkpt lat="43.77252" lon="5.18007">
        <ele>284.100006104</ele>
        <time>2014-08-21T13:56:16.415Z</time>
      </trkpt>
      <trkpt lat="43.77251" lon="5.18009">
        <ele>284.200012207</ele>
        <time>2014-08-21T13:56:17.415Z</time>
      </trkpt>
      <trkpt lat="43.77248" lon="5.18019">
        <ele>284.799987793</ele>
        <time>2014-08-21T13:56:23.415Z</time>
      </trkpt>
      <trkpt lat="43.77247" lon="5.18021">
        <ele>284.899993896</ele>
        <time>2014-08-21T13:56:24.415Z</time>
      </trkpt>
      <trkpt lat="43.77244" lon="5.18031">
        <ele>284.600006104</ele>
        <time>2014-08-21T13:56:29.415Z</time>
      </trkpt>
      <trkpt lat="43.77244" lon="5.18034">
        <ele>284.399993896</ele>
        <time>2014-08-21T13:56:30.415Z</time>
      </trkpt>
      <trkpt lat="43.77244" lon="5.18045">
        <ele>284</ele>
        <time>2014-08-21T13:56:35.415Z</time>
      </trkpt>
      <trkpt lat="43.77243" lon="5.18047">
        <ele>283.899993896</ele>
        <time>2014-08-21T13:56:36.415Z</time>
      </trkpt>
      <trkpt lat="43.77244" lon="5.18058">
        <ele>283.600006104</ele>
        <time>2014-08-21T13:56:41.415Z</time>
      </trkpt>
      <trkpt lat="43.77244" lon="5.18059">
        <ele>283.5</ele>
        <time>2014-08-21T13:56:42.416Z</time>
      </trkpt>
      <trkpt lat="43.77248" lon="5.18071">
        <ele>282.600006104</ele>
        <time>2014-08-21T13:56:48.415Z</time>
      </trkpt>
      <trkpt lat="43.77248" lon="5.18073">
        <ele>282.399993896</ele>
        <time>2014-08-21T13:56:49.415Z</time>
      </trkpt>
      <trkpt lat="43.77253" lon="5.18083">
        <ele>282.299987793</ele>
        <time>2014-08-21T13:57:00.414Z</time>
      </trkpt>
      <trkpt lat="43.77253" lon="5.18084">
        <ele>282.399993896</ele>
        <time>2014-08-21T13:57:01.416Z</time>
      </trkpt>
      <trkpt lat="43.77246" lon="5.18087">
        <ele>282.899993896</ele>
        <time>2014-08-21T13:57:22.415Z</time>
      </trkpt>
      <trkpt lat="43.77243" lon="5.18085">
        <ele>282.899993896</ele>
        <time>2014-08-21T13:57:23.414Z</time>
      </trkpt>
      <trkpt lat="43.77249" lon="5.18089">
        <ele>282.899993896</ele>
        <time>2014-08-21T13:57:25.415Z</time>
      </trkpt>
      <trkpt lat="43.77254" lon="5.18091">
        <ele>283.100006104</ele>
        <time>2014-08-21T13:57:26.417Z</time>
      </trkpt>
      <trkpt lat="43.77261" lon="5.18095">
        <ele>284.799987793</ele>
        <time>2014-08-21T13:59:06.445Z</time>
      </trkpt>
      <trkpt lat="43.77259" lon="5.18101">
        <ele>283.299987793</ele>
        <time>2014-08-21T13:59:07.415Z</time>
      </trkpt>
      <trkpt lat="43.77265" lon="5.1811">
        <ele>283.299987793</ele>
        <time>2014-08-21T13:59:44.416Z</time>
      </trkpt>
      <trkpt lat="43.77265" lon="5.1811">
        <ele>283.299987793</ele>
        <time>2014-08-21T13:59:45.414Z</time>
      </trkpt>
      <trkpt lat="43.7727" lon="5.18119">
        <ele>283.600006104</ele>
        <time>2014-08-21T14:03:16.297Z</time>
      </trkpt>
      <trkpt lat="43.77271" lon="5.18121">
        <ele>283.600006104</ele>
        <time>2014-08-21T14:03:17.297Z</time>
      </trkpt>
      <trkpt lat="43.77274" lon="5.1813">
        <ele>283.399993896</ele>
        <time>2014-08-21T14:03:21.297Z</time>
      </trkpt>
      <trkpt lat="43.77275" lon="5.18133">
        <ele>283.399993896</ele>
        <time>2014-08-21T14:03:22.297Z</time>
      </trkpt>
      <trkpt lat="43.77278" lon="5.18142">
        <ele>283.299987793</ele>
        <time>2014-08-21T14:03:26.299Z</time>
      </trkpt>
      <trkpt lat="43.77279" lon="5.18144">
        <ele>283.399993896</ele>
        <time>2014-08-21T14:03:27.297Z</time>
      </trkpt>
      <trkpt lat="43.77281" lon="5.18154">
        <ele>283.399993896</ele>
        <time>2014-08-21T14:03:32.299Z</time>
      </trkpt>
      <trkpt lat="43.77281" lon="5.18157">
        <ele>283.399993896</ele>
        <time>2014-08-21T14:03:33.297Z</time>
      </trkpt>
      <trkpt lat="43.77284" lon="5.18167">
        <ele>283.100006104</ele>
        <time>2014-08-21T14:03:38.299Z</time>
      </trkpt>
      <trkpt lat="43.77284" lon="5.18169">
        <ele>283</ele>
        <time>2014-08-21T14:03:39.297Z</time>
      </trkpt>
      <trkpt lat="43.77289" lon="5.18179">
        <ele>282.200012207</ele>
        <time>2014-08-21T14:03:45.297Z</time>
      </trkpt>
      <trkpt lat="43.77289" lon="5.18181">
        <ele>282.100006104</ele>
        <time>2014-08-21T14:03:46.297Z</time>
      </trkpt>
      <trkpt lat="43.77294" lon="5.18191">
        <ele>280.899993896</ele>
        <time>2014-08-21T14:03:53.297Z</time>
      </trkpt>
      <trkpt lat="43.77295" lon="5.18193">
        <ele>280.700012207</ele>
        <time>2014-08-21T14:03:54.297Z</time>
      </trkpt>
      <trkpt lat="43.773" lon="5.18203">
        <ele>279.899993896</ele>
        <time>2014-08-21T14:04:16.297Z</time>
      </trkpt>
      <trkpt lat="43.77302" lon="5.18212">
        <ele>279.899993896</ele>
        <time>2014-08-21T14:04:17.297Z</time>
      </trkpt>
      <trkpt lat="43.77305" lon="5.18222">
        <ele>279.200012207</ele>
        <time>2014-08-21T14:04:23.297Z</time>
      </trkpt>
      <trkpt lat="43.77306" lon="5.18225">
        <ele>279.100006104</ele>
        <time>2014-08-21T14:04:24.297Z</time>
      </trkpt>
      <trkpt lat="43.77309" lon="5.18236">
        <ele>277.299987793</ele>
        <time>2014-08-21T14:04:45.297Z</time>
      </trkpt>
      <trkpt lat="43.77309" lon="5.18238">
        <ele>277.100006104</ele>
        <time>2014-08-21T14:04:46.297Z</time>
      </trkpt>
      <trkpt lat="43.7731" lon="5.1825">
        <ele>276.200012207</ele>
        <time>2014-08-21T14:04:52.296Z</time>
      </trkpt>
      <trkpt lat="43.7731" lon="5.18253">
        <ele>276.100006104</ele>
        <time>2014-08-21T14:04:53.297Z</time>
      </trkpt>
      <trkpt lat="43.7731" lon="5.18263">
        <ele>275.299987793</ele>
        <time>2014-08-21T14:04:57.297Z</time>
      </trkpt>
      <trkpt lat="43.7731" lon="5.18265">
        <ele>275.100006104</ele>
        <time>2014-08-21T14:04:58.304Z</time>
      </trkpt>
      <trkpt lat="43.77311" lon="5.18277">
        <ele>274.700012207</ele>
        <time>2014-08-21T14:05:03.363Z</time>
      </trkpt>
      <trkpt lat="43.77311" lon="5.18279">
        <ele>274.799987793</ele>
        <time>2014-08-21T14:05:04.303Z</time>
      </trkpt>
      <trkpt lat="43.77313" lon="5.18291">
        <ele>274.899993896</ele>
        <time>2014-08-21T14:05:08.3Z</time>
      </trkpt>
      <trkpt lat="43.77313" lon="5.18294">
        <ele>274.899993896</ele>
        <time>2014-08-21T14:05:09.299Z</time>
      </trkpt>
      <trkpt lat="43.77315" lon="5.18305">
        <ele>274.700012207</ele>
        <time>2014-08-21T14:05:13.3Z</time>
      </trkpt>
      <trkpt lat="43.77316" lon="5.18307">
        <ele>274.700012207</ele>
        <time>2014-08-21T14:05:14.3Z</time>
      </trkpt>
      <trkpt lat="43.77317" lon="5.18318">
        <ele>274.799987793</ele>
        <time>2014-08-21T14:05:18.297Z</time>
      </trkpt>
      <trkpt lat="43.77317" lon="5.1832">
        <ele>274.899993896</ele>
        <time>2014-08-21T14:05:19.299Z</time>
      </trkpt>
      <trkpt lat="43.77321" lon="5.18331">
        <ele>276.299987793</ele>
        <time>2014-08-21T14:05:25.298Z</time>
      </trkpt>
      <trkpt lat="43.7732" lon="5.18332">
        <ele>276.600006104</ele>
        <time>2014-08-21T14:05:26.3Z</time>
      </trkpt>
      <trkpt lat="43.77323" lon="5.18343">
        <ele>278.899993896</ele>
        <time>2014-08-21T14:05:32.3Z</time>
      </trkpt>
      <trkpt lat="43.77325" lon="5.18345">
        <ele>279.399993896</ele>
        <time>2014-08-21T14:05:33.31Z</time>
      </trkpt>
      <trkpt lat="43.77327" lon="5.18355">
        <ele>282.799987793</ele>
        <time>2014-08-21T14:05:39.298Z</time>
      </trkpt>
      <trkpt lat="43.77328" lon="5.18357">
        <ele>283.399993896</ele>
        <time>2014-08-21T14:05:40.299Z</time>
      </trkpt>
      <trkpt lat="43.7733" lon="5.18367">
        <ele>285.399993896</ele>
        <time>2014-08-21T14:05:44.3Z</time>
      </trkpt>
      <trkpt lat="43.7733" lon="5.18369">
        <ele>285.899993896</ele>
        <time>2014-08-21T14:05:45.298Z</time>
      </trkpt>
      <trkpt lat="43.77333" lon="5.18378">
        <ele>288.399993896</ele>
        <time>2014-08-21T14:05:49.297Z</time>
      </trkpt>
      <trkpt lat="43.77334" lon="5.1838">
        <ele>288.799987793</ele>
        <time>2014-08-21T14:05:50.299Z</time>
      </trkpt>
      <trkpt lat="43.77338" lon="5.1839">
        <ele>290.399993896</ele>
        <time>2014-08-21T14:05:54.298Z</time>
      </trkpt>
      <trkpt lat="43.77339" lon="5.18393">
        <ele>290.899993896</ele>
        <time>2014-08-21T14:05:55.297Z</time>
      </trkpt>
      <trkpt lat="43.77342" lon="5.18403">
        <ele>292.200012207</ele>
        <time>2014-08-21T14:05:59.297Z</time>
      </trkpt>
      <trkpt lat="43.77342" lon="5.18405">
        <ele>292.399993896</ele>
        <time>2014-08-21T14:06:00.298Z</time>
      </trkpt>
      <trkpt lat="43.77345" lon="5.18414">
        <ele>293.200012207</ele>
        <time>2014-08-21T14:06:04.297Z</time>
      </trkpt>
      <trkpt lat="43.77346" lon="5.18416">
        <ele>293.5</ele>
        <time>2014-08-21T14:06:05.298Z</time>
      </trkpt>
      <trkpt lat="43.77351" lon="5.18425">
        <ele>294.899993896</ele>
        <time>2014-08-21T14:06:09.298Z</time>
      </trkpt>
      <trkpt lat="43.77353" lon="5.18427">
        <ele>295.200012207</ele>
        <time>2014-08-21T14:06:10.297Z</time>
      </trkpt>
      <trkpt lat="43.77356" lon="5.18436">
        <ele>296.5</ele>
        <time>2014-08-21T14:06:14.299Z</time>
      </trkpt>
      <trkpt lat="43.77357" lon="5.18439">
        <ele>296.899993896</ele>
        <time>2014-08-21T14:06:15.298Z</time>
      </trkpt>
      <trkpt lat="43.77359" lon="5.18449">
        <ele>297.799987793</ele>
        <time>2014-08-21T14:06:18.296Z</time>
      </trkpt>
      <trkpt lat="43.7736" lon="5.18453">
        <ele>298.200012207</ele>
        <time>2014-08-21T14:06:19.297Z</time>
      </trkpt>
      <trkpt lat="43.77362" lon="5.18462">
        <ele>299.100006104</ele>
        <time>2014-08-21T14:06:22.294Z</time>
      </trkpt>
      <trkpt lat="43.77363" lon="5.18466">
        <ele>299.299987793</ele>
        <time>2014-08-21T14:06:23.296Z</time>
      </trkpt>
      <trkpt lat="43.77364" lon="5.18478">
        <ele>297.600006104</ele>
        <time>2014-08-21T14:06:26.299Z</time>
      </trkpt>
      <trkpt lat="43.77365" lon="5.18482">
        <ele>297</ele>
        <time>2014-08-21T14:06:27.328Z</time>
      </trkpt>
      <trkpt lat="43.77369" lon="5.18491">
        <ele>296.700012207</ele>
        <time>2014-08-21T14:06:30.297Z</time>
      </trkpt>
      <trkpt lat="43.77371" lon="5.18494">
        <ele>296.399993896</ele>
        <time>2014-08-21T14:06:31.297Z</time>
      </trkpt>
      <trkpt lat="43.77374" lon="5.18504">
        <ele>294.600006104</ele>
        <time>2014-08-21T14:06:36.297Z</time>
      </trkpt>
      <trkpt lat="43.77374" lon="5.18506">
        <ele>294.200012207</ele>
        <time>2014-08-21T14:06:37.297Z</time>
      </trkpt>
      <trkpt lat="43.77377" lon="5.18516">
        <ele>292.700012207</ele>
        <time>2014-08-21T14:06:41.297Z</time>
      </trkpt>
      <trkpt lat="43.77377" lon="5.18519">
        <ele>292.399993896</ele>
        <time>2014-08-21T14:06:42.298Z</time>
      </trkpt>
      <trkpt lat="43.77379" lon="5.1853">
        <ele>291.200012207</ele>
        <time>2014-08-21T14:06:47.297Z</time>
      </trkpt>
      <trkpt lat="43.77379" lon="5.18532">
        <ele>290.799987793</ele>
        <time>2014-08-21T14:06:48.297Z</time>
      </trkpt>
      <trkpt lat="43.77381" lon="5.18543">
        <ele>289.299987793</ele>
        <time>2014-08-21T14:06:53.297Z</time>
      </trkpt>
      <trkpt lat="43.77382" lon="5.18545">
        <ele>289</ele>
        <time>2014-08-21T14:06:54.296Z</time>
      </trkpt>
      <trkpt lat="43.77384" lon="5.18557">
        <ele>287</ele>
        <time>2014-08-21T14:06:59.296Z</time>
      </trkpt>
      <trkpt lat="43.77384" lon="5.1856">
        <ele>286.600006104</ele>
        <time>2014-08-21T14:07:00.298Z</time>
      </trkpt>
      <trkpt lat="43.77385" lon="5.18571">
        <ele>285</ele>
        <time>2014-08-21T14:07:05.298Z</time>
      </trkpt>
      <trkpt lat="43.77385" lon="5.18575">
        <ele>284.700012207</ele>
        <time>2014-08-21T14:07:06.297Z</time>
      </trkpt>
      <trkpt lat="43.77386" lon="5.18584">
        <ele>283.799987793</ele>
        <time>2014-08-21T14:07:09.297Z</time>
      </trkpt>
      <trkpt lat="43.77385" lon="5.18587">
        <ele>283.5</ele>
        <time>2014-08-21T14:07:10.297Z</time>
      </trkpt>
      <trkpt lat="43.77385" lon="5.18597">
        <ele>281.200012207</ele>
        <time>2014-08-21T14:07:14.299Z</time>
      </trkpt>
      <trkpt lat="43.77385" lon="5.186">
        <ele>280.700012207</ele>
        <time>2014-08-21T14:07:15.297Z</time>
      </trkpt>
      <trkpt lat="43.77385" lon="5.1861">
        <ele>279.399993896</ele>
        <time>2014-08-21T14:07:19.297Z</time>
      </trkpt>
      <trkpt lat="43.77385" lon="5.18613">
        <ele>279.100006104</ele>
        <time>2014-08-21T14:07:20.299Z</time>
      </trkpt>
      <trkpt lat="43.77385" lon="5.18625">
        <ele>277.600006104</ele>
        <time>2014-08-21T14:07:24.308Z</time>
      </trkpt>
      <trkpt lat="43.77385" lon="5.18627">
        <ele>277.100006104</ele>
        <time>2014-08-21T14:07:25.297Z</time>
      </trkpt>
      <trkpt lat="43.77385" lon="5.18638">
        <ele>274.899993896</ele>
        <time>2014-08-21T14:07:29.298Z</time>
      </trkpt>
      <trkpt lat="43.77385" lon="5.18641">
        <ele>274.5</ele>
        <time>2014-08-21T14:07:30.296Z</time>
      </trkpt>
      <trkpt lat="43.77384" lon="5.18653">
        <ele>273.100006104</ele>
        <time>2014-08-21T14:07:34.296Z</time>
      </trkpt>
      <trkpt lat="43.77384" lon="5.18656">
        <ele>272.700012207</ele>
        <time>2014-08-21T14:07:35.297Z</time>
      </trkpt>
      <trkpt lat="43.7738" lon="5.18666">
        <ele>270.200012207</ele>
        <time>2014-08-21T14:07:39.297Z</time>
      </trkpt>
      <trkpt lat="43.7738" lon="5.18668">
        <ele>269.700012207</ele>
        <time>2014-08-21T14:07:40.297Z</time>
      </trkpt>
      <trkpt lat="43.77376" lon="5.18678">
        <ele>266.799987793</ele>
        <time>2014-08-21T14:07:44.299Z</time>
      </trkpt>
      <trkpt lat="43.77375" lon="5.1868">
        <ele>266</ele>
        <time>2014-08-21T14:07:45.296Z</time>
      </trkpt>
      <trkpt lat="43.77373" lon="5.18691">
        <ele>263.5</ele>
        <time>2014-08-21T14:07:49.297Z</time>
      </trkpt>
      <trkpt lat="43.77372" lon="5.18694">
        <ele>263</ele>
        <time>2014-08-21T14:07:50.299Z</time>
      </trkpt>
      <trkpt lat="43.77371" lon="5.18703">
        <ele>261</ele>
        <time>2014-08-21T14:07:54.296Z</time>
      </trkpt>
      <trkpt lat="43.7737" lon="5.18706">
        <ele>260.600006104</ele>
        <time>2014-08-21T14:07:55.297Z</time>
      </trkpt>
      <trkpt lat="43.77368" lon="5.18716">
        <ele>259</ele>
        <time>2014-08-21T14:07:59.297Z</time>
      </trkpt>
      <trkpt lat="43.77368" lon="5.18718">
        <ele>258.600006104</ele>
        <time>2014-08-21T14:08:00.297Z</time>
      </trkpt>
      <trkpt lat="43.77364" lon="5.18729">
        <ele>257.299987793</ele>
        <time>2014-08-21T14:08:05.298Z</time>
      </trkpt>
      <trkpt lat="43.77363" lon="5.18732">
        <ele>257.200012207</ele>
        <time>2014-08-21T14:08:06.296Z</time>
      </trkpt>
      <trkpt lat="43.77363" lon="5.18743">
        <ele>256.100006104</ele>
        <time>2014-08-21T14:08:11.296Z</time>
      </trkpt>
      <trkpt lat="43.77363" lon="5.18745">
        <ele>255.899993896</ele>
        <time>2014-08-21T14:08:12.297Z</time>
      </trkpt>
      <trkpt lat="43.77365" lon="5.18757">
        <ele>254.800003052</ele>
        <time>2014-08-21T14:08:18.296Z</time>
      </trkpt>
      <trkpt lat="43.77364" lon="5.18759">
        <ele>254.699996948</ele>
        <time>2014-08-21T14:08:19.296Z</time>
      </trkpt>
      <trkpt lat="43.77365" lon="5.1877">
        <ele>253.600006104</ele>
        <time>2014-08-21T14:08:23.296Z</time>
      </trkpt>
      <trkpt lat="43.77367" lon="5.18773">
        <ele>253.300003052</ele>
        <time>2014-08-21T14:08:24.327Z</time>
      </trkpt>
      <trkpt lat="43.7737" lon="5.18783">
        <ele>251.399993896</ele>
        <time>2014-08-21T14:08:28.297Z</time>
      </trkpt>
      <trkpt lat="43.77371" lon="5.18785">
        <ele>251</ele>
        <time>2014-08-21T14:08:29.296Z</time>
      </trkpt>
      <trkpt lat="43.77374" lon="5.18794">
        <ele>249.600006104</ele>
        <time>2014-08-21T14:08:34.297Z</time>
      </trkpt>
      <trkpt lat="43.77375" lon="5.18796">
        <ele>249.399993896</ele>
        <time>2014-08-21T14:08:35.296Z</time>
      </trkpt>
      <trkpt lat="43.77378" lon="5.18807">
        <ele>248.600006104</ele>
        <time>2014-08-21T14:08:40.296Z</time>
      </trkpt>
      <trkpt lat="43.77378" lon="5.18809">
        <ele>248.5</ele>
        <time>2014-08-21T14:08:41.296Z</time>
      </trkpt>
      <trkpt lat="43.77383" lon="5.18819">
        <ele>248.199996948</ele>
        <time>2014-08-21T14:08:47.296Z</time>
      </trkpt>
      <trkpt lat="43.77383" lon="5.18821">
        <ele>248.199996948</ele>
        <time>2014-08-21T14:08:48.296Z</time>
      </trkpt>
      <trkpt lat="43.77386" lon="5.18828">
        <ele>247.100006104</ele>
        <time>2014-08-21T14:11:20.298Z</time>
      </trkpt>
      <trkpt lat="43.77391" lon="5.18837">
        <ele>254.100006104</ele>
        <time>2014-08-21T14:11:21.295Z</time>
      </trkpt>
      <trkpt lat="43.77395" lon="5.18845">
        <ele>254.100006104</ele>
        <time>2014-08-21T14:11:27.296Z</time>
      </trkpt>
      <trkpt lat="43.77396" lon="5.18847">
        <ele>254.199996948</ele>
        <time>2014-08-21T14:11:28.295Z</time>
      </trkpt>
      <trkpt lat="43.77401" lon="5.18857">
        <ele>254.300003052</ele>
        <time>2014-08-21T14:11:33.296Z</time>
      </trkpt>
      <trkpt lat="43.77402" lon="5.18859">
        <ele>254.5</ele>
        <time>2014-08-21T14:11:34.295Z</time>
      </trkpt>
      <trkpt lat="43.77407" lon="5.18867">
        <ele>255.199996948</ele>
        <time>2014-08-21T14:11:38.297Z</time>
      </trkpt>
      <trkpt lat="43.77409" lon="5.1887">
        <ele>255.300003052</ele>
        <time>2014-08-21T14:11:39.295Z</time>
      </trkpt>
      <trkpt lat="43.77415" lon="5.18878">
        <ele>255.800003052</ele>
        <time>2014-08-21T14:11:42.308Z</time>
      </trkpt>
      <trkpt lat="43.77416" lon="5.18881">
        <ele>256</ele>
        <time>2014-08-21T14:11:43.295Z</time>
      </trkpt>
      <trkpt lat="43.7742" lon="5.18891">
        <ele>256.5</ele>
        <time>2014-08-21T14:11:49.295Z</time>
      </trkpt>
      <trkpt lat="43.7742" lon="5.18892">
        <ele>256.5</ele>
        <time>2014-08-21T14:11:50.298Z</time>
      </trkpt>
      <trkpt lat="43.77422" lon="5.18904">
        <ele>256.5</ele>
        <time>2014-08-21T14:11:55.296Z</time>
      </trkpt>
      <trkpt lat="43.77422" lon="5.18906">
        <ele>256.600006104</ele>
        <time>2014-08-21T14:11:56.297Z</time>
      </trkpt>
      <trkpt lat="43.77425" lon="5.18916">
        <ele>256.799987793</ele>
        <time>2014-08-21T14:12:00.295Z</time>
      </trkpt>
      <trkpt lat="43.77425" lon="5.18919">
        <ele>256.799987793</ele>
        <time>2014-08-21T14:12:01.295Z</time>
      </trkpt>
      <trkpt lat="43.7743" lon="5.18926">
        <ele>256.700012207</ele>
        <time>2014-08-21T14:12:05.295Z</time>
      </trkpt>
      <trkpt lat="43.77431" lon="5.18928">
        <ele>256.700012207</ele>
        <time>2014-08-21T14:12:06.295Z</time>
      </trkpt>
      <trkpt lat="43.77432" lon="5.18939">
        <ele>256.799987793</ele>
        <time>2014-08-21T14:12:10.295Z</time>
      </trkpt>
      <trkpt lat="43.77433" lon="5.18942">
        <ele>256.700012207</ele>
        <time>2014-08-21T14:12:11.295Z</time>
      </trkpt>
      <trkpt lat="43.77436" lon="5.18952">
        <ele>256.399993896</ele>
        <time>2014-08-21T14:12:15.295Z</time>
      </trkpt>
      <trkpt lat="43.77436" lon="5.18954">
        <ele>256.299987793</ele>
        <time>2014-08-21T14:12:16.295Z</time>
      </trkpt>
      <trkpt lat="43.7744" lon="5.18965">
        <ele>256.100006104</ele>
        <time>2014-08-21T14:12:20.328Z</time>
      </trkpt>
      <trkpt lat="43.77442" lon="5.18967">
        <ele>256.100006104</ele>
        <time>2014-08-21T14:12:21.295Z</time>
      </trkpt>
      <trkpt lat="43.77446" lon="5.18977">
        <ele>256.100006104</ele>
        <time>2014-08-21T14:12:27.297Z</time>
      </trkpt>
      <trkpt lat="43.77446" lon="5.18979">
        <ele>256.100006104</ele>
        <time>2014-08-21T14:12:28.297Z</time>
      </trkpt>
      <trkpt lat="43.77449" lon="5.1899">
        <ele>256.5</ele>
        <time>2014-08-21T14:12:33.297Z</time>
      </trkpt>
      <trkpt lat="43.77451" lon="5.18993">
        <ele>256.399993896</ele>
        <time>2014-08-21T14:12:34.297Z</time>
      </trkpt>
      <trkpt lat="43.77453" lon="5.19005">
        <ele>256.200012207</ele>
        <time>2014-08-21T14:12:40.292Z</time>
      </trkpt>
      <trkpt lat="43.77453" lon="5.19006">
        <ele>256.100006104</ele>
        <time>2014-08-21T14:12:41.298Z</time>
      </trkpt>
      <trkpt lat="43.77458" lon="5.18997">
        <ele>255.699996948</ele>
        <time>2014-08-21T14:12:43.323Z</time>
      </trkpt>
      <trkpt lat="43.77462" lon="5.1899">
        <ele>254.600006104</ele>
        <time>2014-08-21T14:12:44.319Z</time>
      </trkpt>
      <trkpt lat="43.7746" lon="5.19">
        <ele>254.199996948</ele>
        <time>2014-08-21T14:12:45.321Z</time>
      </trkpt>
      <trkpt lat="43.77461" lon="5.19005">
        <ele>252.199996948</ele>
        <time>2014-08-21T14:12:46.304Z</time>
      </trkpt>
      <trkpt lat="43.77461" lon="5.19013">
        <ele>248.899993896</ele>
        <time>2014-08-21T14:12:48.297Z</time>
      </trkpt>
      <trkpt lat="43.7746" lon="5.19018">
        <ele>247.199996948</ele>
        <time>2014-08-21T14:12:49.324Z</time>
      </trkpt>
      <trkpt lat="43.77457" lon="5.19027">
        <ele>243.399993896</ele>
        <time>2014-08-21T14:12:52.29Z</time>
      </trkpt>
      <trkpt lat="43.77457" lon="5.1903">
        <ele>242.5</ele>
        <time>2014-08-21T14:12:53.297Z</time>
      </trkpt>
      <trkpt lat="43.77454" lon="5.19041">
        <ele>239.399993896</ele>
        <time>2014-08-21T14:12:57.473Z</time>
      </trkpt>
    </trkseg>
  </trk>
</gpx>